Time;durP1;ratioP1;P1;durP2;ratioP2;P2;SDS_P1;SDS_P2;PMS_P1;PMS_P2;Temp;Humidity;BMP_temperature;BMP_pressure;BME280_temperature;BME280_humidity;BME280_pressure;Samples;Min_cycle;Max_cycle;Signal;HPM_P1;HPM_P2
2024/04/22 00:01:57;;;;;;;4.05;2.42;;;;;;;10.61;100.00;102069.50;4738302;30;20040;-93
2024/04/22 00:04:23;;;;;;;6.07;2.50;;;;;;;10.66;100.00;102070.03;4767395;29;20310;-93
2024/04/22 00:06:48;;;;;;;5.10;2.50;;;;;;;10.65;100.00;102065.69;4741561;30;20042;-94
2024/04/22 00:09:14;;;;;;;5.25;2.50;;;;;;;10.60;100.00;102065.16;4757595;30;20116;-94
2024/04/22 00:11:40;;;;;;;4.75;2.50;;;;;;;10.63;100.00;102077.31;4771978;30;20044;-94
2024/04/22 00:14:08;;;;;;;7.38;2.75;;;;;;;10.56;100.00;102066.31;4761310;30;20126;-96
2024/04/22 00:16:35;;;;;;;4.03;2.35;;;;;;;10.56;100.00;102070.78;4757479;30;20088;-94
2024/04/22 00:19:01;;;;;;;3.75;2.30;;;;;;;10.51;100.00;102065.78;4770042;30;20031;-94
2024/04/22 00:21:27;;;;;;;4.40;2.65;;;;;;;10.51;100.00;102063.97;4751256;30;20039;-95
2024/04/22 00:23:53;;;;;;;5.72;3.42;;;;;;;10.46;100.00;102066.09;4761231;30;20589;-95
2024/04/22 00:26:21;;;;;;;5.82;2.72;;;;;;;10.44;100.00;102065.31;4761001;29;20043;-95
2024/04/22 00:28:50;;;;;;;6.00;3.08;;;;;;;10.46;100.00;102076.69;4774151;30;20173;-94
2024/04/22 00:31:18;;;;;;;5.70;3.15;;;;;;;10.35;100.00;102063.31;4765813;30;20438;-94
2024/04/22 00:33:44;;;;;;;5.57;3.60;;;;;;;10.39;100.00;102070.91;4765663;30;20055;-95
2024/04/22 00:36:10;;;;;;;6.38;3.70;;;;;;;10.38;100.00;102073.66;4763108;30;20524;-95
2024/04/22 00:38:36;;;;;;;6.28;3.33;;;;;;;10.33;100.00;102057.25;4765194;29;20122;-95
2024/04/22 00:41:02;;;;;;;6.05;3.53;;;;;;;10.29;100.00;102059.25;4756150;30;20059;-95
2024/04/22 00:43:28;;;;;;;4.35;3.03;;;;;;;10.29;100.00;102062.75;4785804;29;20027;-94
2024/04/22 00:45:55;;;;;;;6.50;3.10;;;;;;;10.30;100.00;102063.59;4770488;30;20134;-96
2024/04/22 00:48:22;;;;;;;6.30;4.22;;;;;;;10.23;100.00;102060.50;4755189;30;20042;-94
2024/04/22 00:50:51;;;;;;;8.80;4.53;;;;;;;10.17;100.00;102056.50;4755835;30;20032;-95
2024/04/22 00:53:17;;;;;;;11.18;3.90;;;;;;;10.21;100.00;102064.22;4763234;30;20043;-95
2024/04/22 00:55:44;;;;;;;3.80;3.10;;;;;;;10.21;100.00;102065.06;4755180;30;20047;-95
2024/04/22 00:58:14;;;;;;;4.95;3.53;;;;;;;10.12;100.00;102063.88;4757237;30;20429;-95
2024/04/22 01:00:40;;;;;;;4.30;3.80;;;;;;;10.13;100.00;102062.91;4742925;30;20053;-95
2024/04/22 01:03:06;;;;;;;8.93;4.10;;;;;;;10.10;100.00;102065.75;4769555;30;20078;-96
2024/04/22 01:05:34;;;;;;;7.22;4.38;;;;;;;10.13;100.00;102070.84;4768539;30;20501;-95
2024/04/22 01:08:05;;;;;;;10.45;4.70;;;;;;;10.09;100.00;102072.00;4782370;30;20035;-95
2024/04/22 01:10:32;;;;;;;10.20;5.15;;;;;;;10.04;100.00;102060.88;4768995;30;20073;-96
2024/04/22 01:13:00;;;;;;;7.50;5.15;;;;;;;10.05;100.00;102055.50;4769743;30;20039;-96
2024/04/22 01:15:26;;;;;;;12.07;6.00;;;;;;;10.01;100.00;102064.59;4762021;29;20074;-95
2024/04/22 01:17:52;;;;;;;8.45;5.30;;;;;;;10.02;100.00;102065.41;4775335;30;20039;-95
2024/04/22 01:20:19;;;;;;;10.20;4.75;;;;;;;9.97;100.00;102056.97;4754611;30;20511;-95
2024/04/22 01:22:45;;;;;;;7.90;4.05;;;;;;;9.86;100.00;102052.38;4755617;30;20047;-96
2024/04/22 01:25:11;;;;;;;8.07;4.10;;;;;;;9.89;100.00;102050.38;4759395;29;20122;-96
2024/04/22 01:27:37;;;;;;;9.00;4.32;;;;;;;9.83;100.00;102045.47;4761416;30;20063;-95
2024/04/22 01:30:05;;;;;;;11.73;4.30;;;;;;;9.87;100.00;102056.72;4767443;29;20540;-95
2024/04/22 01:32:34;;;;;;;9.77;4.78;;;;;;;9.83;100.00;102060.47;4768686;30;20036;-95
2024/04/22 01:35:04;;;;;;;9.18;4.80;;;;;;;9.78;100.00;102061.63;4774455;29;20069;-94
2024/04/22 01:37:32;;;;;;;5.50;4.03;;;;;;;9.71;100.00;102052.41;4756298;30;20098;-95
2024/04/22 01:39:58;;;;;;;7.45;4.65;;;;;;;9.72;100.00;102050.59;4780980;29;20050;-95
2024/04/22 01:42:25;;;;;;;8.15;4.13;;;;;;;9.75;100.00;102060.97;4784506;29;20180;-95
2024/04/22 01:44:51;;;;;;;10.57;4.10;;;;;;;9.75;100.00;102058.34;4783709;30;20043;-95
2024/04/22 01:47:18;;;;;;;6.45;3.80;;;;;;;9.72;100.00;102054.09;4782611;30;20090;-95
2024/04/22 01:49:46;;;;;;;7.57;3.72;;;;;;;9.66;100.00;102039.50;4769294;30;20050;-95
2024/04/22 01:52:13;;;;;;;5.70;3.20;;;;;;;9.63;100.00;102046.78;4752141;30;20043;-95
2024/04/22 01:54:39;;;;;;;4.18;3.05;;;;;;;9.61;100.00;102056.59;4738118;30;20044;-95
2024/04/22 01:57:05;;;;;;;7.00;2.90;;;;;;;9.56;100.00;102051.59;4777353;29;20043;-95
2024/04/22 01:59:31;;;;;;;3.88;2.70;;;;;;;9.55;100.00;102053.41;4755534;30;20031;-95
2024/04/22 02:01:57;;;;;;;5.38;2.95;;;;;;;9.50;100.00;102060.75;4748060;30;20042;-96
2024/04/22 02:04:23;;;;;;;4.97;3.00;;;;;;;9.45;100.00;102041.72;4767970;30;20046;-95
2024/04/22 02:06:48;;;;;;;6.28;2.53;;;;;;;9.46;100.00;102045.22;4768439;30;20035;-94
2024/04/22 02:09:14;;;;;;;5.07;3.00;;;;;;;9.33;100.00;102043.34;4769145;30;20050;-94
2024/04/22 02:11:40;;;;;;;5.45;3.47;;;;;;;9.25;100.00;102041.19;4770936;30;20050;-94
2024/04/22 02:14:06;;;;;;;9.68;3.80;;;;;;;9.15;100.00;102034.78;4769915;29;20039;-94
2024/04/22 02:16:31;;;;;;;6.43;4.53;;;;;;;9.09;100.00;102037.81;4744805;30;20055;-94
2024/04/22 02:18:57;;;;;;;7.40;4.32;;;;;;;9.08;100.00;102036.13;4769283;30;20046;-95
2024/04/22 02:21:29;;;;;;;10.27;4.30;;;;;;;9.09;100.00;102035.19;4768212;30;20031;-94
2024/04/22 02:23:55;;;;;;;5.72;3.80;;;;;;;9.13;100.00;102029.63;4759859;30;20043;-95
2024/04/22 02:26:21;;;;;;;3.70;3.00;;;;;;;9.04;100.00;102027.53;4770070;29;20048;-95
2024/04/22 02:28:49;;;;;;;4.53;3.35;;;;;;;8.94;100.00;102019.34;4755431;30;20063;-96
2024/04/22 02:31:20;;;;;;;8.70;4.43;;;;;;;8.99;100.00;102021.69;4750451;30;20043;-95
2024/04/22 02:33:46;;;;;;;6.43;4.32;;;;;;;8.99;100.00;102033.09;4770838;30;20047;-95
2024/04/22 02:36:13;;;;;;;7.20;4.05;;;;;;;8.99;100.00;102027.84;4770051;30;20054;-95
2024/04/22 02:38:39;;;;;;;7.55;3.78;;;;;;;8.95;100.00;102022.84;4766914;30;20034;-95
2024/04/22 02:41:05;;;;;;;4.30;3.30;;;;;;;8.95;100.00;102026.31;4760205;30;20045;-94
2024/04/22 02:43:31;;;;;;;6.18;4.10;;;;;;;8.87;100.00;102018.03;4771534;30;20051;-94
2024/04/22 02:45:57;;;;;;;5.60;4.20;;;;;;;8.87;100.00;102024.16;4770565;30;20414;-94
2024/04/22 02:48:23;;;;;;;7.25;4.18;;;;;;;8.81;100.00;102017.47;4756217;30;20047;-95
2024/04/22 02:50:49;;;;;;;6.50;4.07;;;;;;;8.91;100.00;102024.81;4786145;30;20070;-95
2024/04/22 02:53:15;;;;;;;6.20;4.20;;;;;;;8.87;100.00;102013.59;4772783;30;20066;-94
2024/04/22 02:55:41;;;;;;;7.25;4.30;;;;;;;8.87;100.00;102021.50;4771400;30;20047;-95
2024/04/22 02:58:07;;;;;;;5.10;4.35;;;;;;;8.84;100.00;102012.97;4755057;30;20097;-95
2024/04/22 03:00:33;;;;;;;6.00;4.13;;;;;;;8.82;100.00;102015.69;4785475;29;20149;-95
2024/04/22 03:03:08;;;;;;;6.38;4.18;;;;;;;8.89;100.00;102016.13;4772968;30;20078;-96
2024/04/22 03:05:37;;;;;;;6.10;3.60;;;;;;;8.86;100.00;102013.69;4744421;29;20035;-95
2024/04/22 03:08:05;;;;;;;5.05;3.58;;;;;;;8.79;100.00;102015.88;4773375;29;20050;-95
2024/04/22 03:10:31;;;;;;;4.75;3.92;;;;;;;8.77;100.00;102012.47;4753620;29;20054;-95
2024/04/22 03:13:03;;;;;;;7.05;3.80;;;;;;;8.76;100.00;102010.78;4743907;29;20050;-95
2024/04/22 03:15:29;;;;;;;5.53;3.65;;;;;;;8.70;100.00;102006.72;4772708;30;20039;-95
2024/04/22 03:17:58;;;;;;;4.28;3.45;;;;;;;8.66;100.00;102008.69;4755295;30;20039;-95
2024/04/22 03:20:23;;;;;;;3.65;2.88;;;;;;;8.65;100.00;102009.63;4741173;29;20631;-96
2024/04/22 03:22:49;;;;;;;5.90;3.58;;;;;;;8.63;100.00;102013.31;4758362;30;20081;-95
2024/04/22 03:25:15;;;;;;;5.07;2.80;;;;;;;8.58;100.00;102013.59;4772793;30;20111;-95
2024/04/22 03:27:41;;;;;;;6.40;4.05;;;;;;;8.49;100.00;102016.75;4745382;30;20043;-95
2024/04/22 03:30:09;;;;;;;5.53;3.15;;;;;;;8.29;100.00;102027.53;4759695;30;20232;-96
2024/04/22 03:32:35;;;;;;;8.25;3.38;;;;;;;8.21;100.00;102029.75;4768816;30;20078;-95
2024/04/22 03:35:00;;;;;;;5.13;3.10;;;;;;;8.19;100.00;102034.25;4787179;30;20070;-96
2024/04/22 03:37:26;;;;;;;7.85;3.25;;;;;;;8.10;100.00;102027.75;4772276;30;20031;-95
2024/04/22 03:39:52;;;;;;;4.40;2.92;;;;;;;8.11;100.00;102026.81;4786804;30;20553;-95
2024/04/22 03:42:18;;;;;;;3.75;2.47;;;;;;;8.10;100.00;102022.47;4756512;30;20050;-95
2024/04/22 03:44:44;;;;;;;3.83;3.10;;;;;;;7.98;100.00;102026.66;4740108;30;20363;-95
2024/04/22 03:49:56;;;;;;;2.90;2.55;;;;;;;7.69;100.00;102034.44;4770954;30;20036;-95
2024/04/22 03:52:22;;;;;;;6.38;3.58;;;;;;;7.61;100.00;102036.66;4766578;30;20043;-95
2024/04/22 03:54:48;;;;;;;5.55;3.20;;;;;;;7.47;100.00;102029.53;4753612;30;20039;-95
2024/04/22 03:57:17;;;;;;;6.93;3.92;;;;;;;7.41;100.00;102030.69;4748456;30;20491;-95
2024/04/22 03:59:44;;;;;;;5.72;3.83;;;;;;;7.29;100.00;102025.16;4767274;29;20027;-95
2024/04/22 04:02:10;;;;;;;8.93;3.55;;;;;;;7.27;100.00;102028.81;4757485;30;20050;-95
2024/04/22 04:04:36;;;;;;;5.15;3.35;;;;;;;7.28;100.00;102028.72;4757185;30;20035;-95
2024/04/22 04:07:02;;;;;;;5.20;3.08;;;;;;;7.27;100.00;102026.19;4753827;30;20298;-95
2024/04/22 04:09:28;;;;;;;5.88;2.95;;;;;;;7.25;100.00;102028.03;4756361;30;20100;-95
2024/04/22 04:11:54;;;;;;;5.15;3.35;;;;;;;7.32;100.00;102019.75;4752932;30;20043;-95
2024/04/22 04:14:20;;;;;;;7.30;2.92;;;;;;;7.43;100.00;102023.56;4793696;29;20035;-95
2024/04/22 04:16:45;;;;;;;5.97;3.17;;;;;;;7.49;100.00;102017.97;4741777;29;20039;-96
2024/04/22 04:19:11;;;;;;;8.18;2.60;;;;;;;7.64;100.00;102025.94;4785749;30;20062;-96
2024/04/22 04:21:37;;;;;;;4.15;2.25;;;;;;;7.72;100.00;102029.00;4757941;29;20050;-95
2024/04/22 04:24:04;;;;;;;4.15;2.75;;;;;;;7.71;100.00;102016.75;4777723;29;20043;-95
2024/04/22 04:26:30;;;;;;;3.75;2.75;;;;;;;7.70;100.00;102009.81;4766831;29;20039;-96
2024/04/22 04:28:56;;;;;;;11.38;2.97;;;;;;;7.79;100.00;102021.59;4764105;30;20052;-96
2024/04/22 04:31:22;;;;;;;3.75;2.70;;;;;;;7.75;100.00;102014.81;4751737;30;20127;-96
2024/04/22 04:33:51;;;;;;;5.43;2.47;;;;;;;7.79;100.00;102024.22;4734413;30;20036;-96
2024/04/22 04:36:17;;;;;;;6.22;2.67;;;;;;;7.70;100.00;102015.06;4737968;30;20540;-96
2024/04/22 04:38:43;;;;;;;5.05;3.08;;;;;;;7.77;100.00;102023.47;4738571;30;20045;-96
2024/04/22 04:41:09;;;;;;;6.22;2.65;;;;;;;7.76;100.00;102013.88;4752346;30;20047;-96
2024/04/22 04:43:35;;;;;;;4.18;2.67;;;;;;;7.80;100.00;102024.13;4754009;30;20054;-96
2024/04/22 04:46:01;;;;;;;3.92;2.67;;;;;;;7.78;100.00;102028.66;4737731;30;20043;-96
2024/04/22 04:48:27;;;;;;;7.07;2.90;;;;;;;7.79;100.00;102027.72;4753131;30;20043;-96
2024/04/22 04:50:52;;;;;;;6.00;3.13;;;;;;;7.77;100.00;102034.00;4753953;30;20051;-96
2024/04/22 04:53:20;;;;;;;3.65;2.67;;;;;;;7.76;100.00;102024.41;4756625;30;20632;-96
2024/04/22 04:55:46;;;;;;;4.22;2.38;;;;;;;7.84;100.00;102030.09;4752759;30;20576;-96
2024/04/22 04:58:13;;;;;;;3.83;2.92;;;;;;;7.88;100.00;102030.75;4755989;30;20055;-96
2024/04/22 05:00:39;;;;;;;4.72;2.75;;;;;;;7.92;100.00;102032.28;4751632;30;20134;-96
2024/04/22 05:03:05;;;;;;;4.20;2.78;;;;;;;7.91;100.00;102030.59;4732312;30;20048;-96
2024/04/22 05:05:31;;;;;;;3.78;2.60;;;;;;;7.89;100.00;102021.91;4763099;30;20043;-96
2024/04/22 05:07:57;;;;;;;4.10;2.80;;;;;;;7.96;100.00;102022.44;4763956;30;20246;-96
2024/04/22 05:10:23;;;;;;;4.20;2.80;;;;;;;8.00;100.00;102022.16;4737268;30;20130;-96
2024/04/22 05:12:49;;;;;;;5.22;2.92;;;;;;;7.91;100.00;102020.91;4752734;30;20043;-95
2024/04/22 05:15:15;;;;;;;7.53;3.50;;;;;;;7.94;100.00;102018.09;4736984;30;20212;-96
2024/04/22 05:17:41;;;;;;;8.35;3.30;;;;;;;7.96;100.00;102027.69;4754531;30;20035;-96
2024/04/22 05:20:08;;;;;;;3.78;2.90;;;;;;;7.95;100.00;102021.56;4752793;30;20043;-96
2024/04/22 05:22:34;;;;;;;15.15;4.35;;;;;;;7.92;100.00;102030.50;4739606;30;20040;-96
2024/04/22 05:25:00;;;;;;;12.27;3.78;;;;;;;7.91;100.00;102030.59;4755444;30;20043;-95
2024/04/22 05:27:26;;;;;;;7.68;3.38;;;;;;;7.89;100.00;102022.78;4765631;30;20047;-95
2024/04/22 05:29:52;;;;;;;16.05;4.00;;;;;;;7.96;100.00;102025.06;4731235;30;20054;-96
2024/04/22 05:32:18;;;;;;;15.15;4.32;;;;;;;8.00;100.00;102021.31;4731146;30;20048;-96
2024/04/22 05:37:30;;;;;;;7.50;2.90;;;;;;;8.08;100.00;102024.34;4746385;30;20327;-96
2024/04/22 05:39:56;;;;;;;7.53;3.42;;;;;;;8.04;100.00;102005.25;4728318;30;20479;-96
2024/04/22 05:42:22;;;;;;;11.38;3.40;;;;;;;8.09;100.00;102006.78;4743344;30;20576;-96
2024/04/22 05:44:48;;;;;;;11.10;3.85;;;;;;;8.17;100.00;102023.81;4756703;30;20055;-95
2024/04/22 05:47:14;;;;;;;5.15;2.95;;;;;;;8.22;100.00;102015.63;4735957;30;20147;-96
2024/04/22 05:49:39;;;;;;;8.52;3.40;;;;;;;8.22;100.00;102015.63;4762237;30;20043;-96
2024/04/22 05:52:05;;;;;;;4.03;2.88;;;;;;;8.25;100.00;102019.91;4743783;30;20162;-96
2024/04/22 05:54:32;;;;;;;8.85;3.67;;;;;;;8.32;100.00;102026.50;4735394;30;20036;-96
2024/04/22 05:56:59;;;;;;;5.90;3.13;;;;;;;8.36;100.00;102022.72;4768780;30;20042;-96
2024/04/22 05:59:25;;;;;;;5.95;3.15;;;;;;;8.47;100.00;102029.16;4765454;30;20309;-96
2024/04/22 06:01:50;;;;;;;6.63;3.25;;;;;;;8.54;100.00;102027.84;4729303;30;20032;-95
2024/04/22 06:04:16;;;;;;;6.60;3.00;;;;;;;8.62;100.00;102024.78;4748687;30;20066;-95
2024/04/22 06:06:42;;;;;;;12.10;3.60;;;;;;;8.64;100.00;102015.00;4747211;30;20052;-96
2024/04/22 06:09:14;;;;;;;9.60;3.08;;;;;;;8.72;100.00;102027.72;4735427;30;20044;-96
2024/04/22 06:11:42;;;;;;;6.45;3.40;;;;;;;8.68;100.00;102012.09;4734246;30;20059;-96
2024/04/22 06:14:08;;;;;;;11.32;2.83;;;;;;;8.80;100.00;102022.84;4732436;30;20681;-96
2024/04/22 06:16:35;;;;;;;4.78;2.83;;;;;;;8.84;100.00;102013.78;4738337;29;20122;-95
2024/04/22 06:19:01;;;;;;;6.47;3.70;;;;;;;8.85;100.00;102012.88;4747685;30;20078;-96
2024/04/22 06:21:27;;;;;;;9.90;3.92;;;;;;;8.87;100.00;102020.69;4751831;30;20130;-96
2024/04/22 06:23:53;;;;;;;6.47;2.92;;;;;;;8.89;100.00;102029.31;4763057;30;20062;-96
2024/04/22 06:26:19;;;;;;;6.40;2.90;;;;;;;8.91;100.00;102022.19;4766780;30;20039;-96
2024/04/22 06:28:45;;;;;;;5.72;3.67;;;;;;;8.97;100.00;102021.78;4769127;30;20048;-96
2024/04/22 06:31:11;;;;;;;9.82;3.80;;;;;;;9.04;100.00;102019.63;4747540;30;20108;-96
2024/04/22 06:33:42;;;;;;;6.18;3.60;;;;;;;9.05;100.00;102016.03;4731404;30;20501;-96
2024/04/22 06:36:12;;;;;;;4.45;3.08;;;;;;;9.24;100.00;102013.09;4749679;30;20071;-96
2024/04/22 06:38:39;;;;;;;6.43;4.15;;;;;;;9.29;100.00;102011.03;4735653;30;20485;-95
2024/04/22 06:41:05;;;;;;;6.18;3.70;;;;;;;9.38;100.00;102014.03;4746412;30;20055;-96
2024/04/22 06:43:32;;;;;;;6.53;3.65;;;;;;;9.42;100.00;102015.53;4760862;30;20050;-96
2024/04/22 06:45:58;;;;;;;5.35;3.75;;;;;;;9.41;100.00;102009.38;4751871;30;20036;-96
2024/04/22 06:48:24;;;;;;;6.97;3.92;;;;;;;9.50;100.00;102010.63;4751566;30;20570;-96
2024/04/22 06:50:51;;;;;;;10.35;4.13;;;;;;;9.56;100.00;102004.09;4751562;30;20040;-96
2024/04/22 06:53:21;;;;;;;8.98;3.75;;;;;;;9.61;100.00;102011.69;4763695;30;20498;-96
2024/04/22 06:55:47;;;;;;;10.88;3.50;;;;;;;9.64;100.00;102004.44;4735721;30;20051;-96
2024/04/22 06:58:13;;;;;;;6.78;3.88;;;;;;;9.72;100.00;102011.00;4737343;30;20027;-96
2024/04/22 07:00:39;;;;;;;7.65;3.40;;;;;;;9.79;100.00;102012.31;4740352;30;20059;-96
2024/04/22 07:03:05;;;;;;;5.50;3.55;;;;;;;9.89;100.00;102008.09;4743796;30;21091;-96
2024/04/22 07:05:30;;;;;;;8.48;4.03;;;;;;;10.00;100.00;102003.94;4736441;30;20040;-95
2024/04/22 07:07:56;;;;;;;6.30;3.50;;;;;;;10.11;100.00;102011.13;4729800;30;20544;-95
2024/04/22 07:10:22;;;;;;;4.82;3.72;;;;;;;10.14;100.00;102003.84;4748322;30;20043;-96
2024/04/22 07:12:48;;;;;;;5.97;4.03;;;;;;;10.14;100.00;102000.34;4750467;30;20459;-95
2024/04/22 07:15:14;;;;;;;6.40;3.80;;;;;;;10.11;100.00;101998.78;4745516;30;20051;-96
2024/04/22 07:17:40;;;;;;;5.00;4.07;;;;;;;10.15;100.00;101999.41;4750310;30;20092;-96
2024/04/22 07:20:06;;;;;;;9.70;3.85;;;;;;;10.20;100.00;102002.59;4736990;30;20058;-95
2024/04/22 07:22:37;;;;;;;6.53;3.80;;;;;;;10.25;100.00;102004.91;4751505;30;20040;-95
2024/04/22 07:25:05;;;;;;;6.55;4.03;;;;;;;10.48;100.00;102013.13;4736404;30;20086;-96
2024/04/22 07:27:31;;;;;;;10.20;4.38;;;;;;;10.63;100.00;102012.06;4720318;30;20159;-95
2024/04/22 07:29:59;;;;;;;10.00;4.72;;;;;;;10.84;100.00;102016.81;4750877;30;20048;-94
2024/04/22 07:32:25;;;;;;;9.57;4.45;;;;;;;10.96;100.00;102006.34;4765483;30;20047;-96
2024/04/22 07:34:52;;;;;;;6.32;3.97;;;;;;;11.16;100.00;102007.56;4753527;30;20050;-95
2024/04/22 07:37:33;;;;;;;7.70;3.95;;;;;;;11.27;100.00;101997.06;4764916;30;20035;-94
2024/04/22 07:40:13;;;;;;;7.45;4.20;;;;;;;11.45;100.00;102006.44;4766540;30;20039;-95
2024/04/22 07:43:26;;;;;;;;;;;;;;;;;;;;;
2024/04/22 07:46:08;;;;;;;9.82;4.68;;;;;;;11.47;100.00;102007.13;4748539;30;20339;-94
2024/04/22 07:48:34;;;;;;;6.10;4.03;;;;;;;11.49;100.00;102003.44;4766844;30;20071;-95
2024/04/22 07:51:03;;;;;;;7.63;4.50;;;;;;;11.53;100.00;102009.38;4765035;30;20035;-95
2024/04/22 07:53:30;;;;;;;8.25;4.47;;;;;;;11.40;100.00;102007.59;4727083;30;20482;-95
2024/04/22 07:55:56;;;;;;;9.00;4.25;;;;;;;11.38;100.00;102014.81;4745102;29;20134;-96
2024/04/22 07:58:22;;;;;;;6.63;3.63;;;;;;;11.37;100.00;102010.47;4751397;30;20320;-95
2024/04/22 08:00:48;;;;;;;7.82;4.30;;;;;;;11.48;100.00;102016.78;4763153;30;20035;-96
2024/04/22 08:03:14;;;;;;;6.53;4.32;;;;;;;11.60;100.00;102010.59;4763865;30;20051;-95
2024/04/22 08:05:40;;;;;;;5.03;3.83;;;;;;;11.74;100.00;102008.72;4750635;30;20037;-95
2024/04/22 08:08:07;;;;;;;7.07;4.05;;;;;;;11.86;100.00;102005.19;4731247;30;21075;-96
2024/04/22 08:10:33;;;;;;;6.68;3.92;;;;;;;11.82;100.00;101997.59;4754143;30;20039;-96
2024/04/22 08:12:59;;;;;;;7.60;3.88;;;;;;;11.72;100.00;102000.88;4752870;30;20050;-96
2024/04/22 08:15:25;;;;;;;9.32;4.47;;;;;;;11.71;100.00;102001.84;4754532;30;20493;-95
2024/04/22 08:17:51;;;;;;;5.90;3.38;;;;;;;11.77;100.00;101996.09;4745139;30;20393;-96
2024/04/22 08:20:16;;;;;;;8.85;4.25;;;;;;;11.84;100.00;101995.66;4743936;30;20046;-94
2024/04/22 08:22:42;;;;;;;10.00;3.90;;;;;;;11.89;100.00;101994.38;4737819;30;20047;-95
2024/04/22 08:25:08;;;;;;;7.68;3.90;;;;;;;11.89;100.00;101994.38;4735182;30;20073;-96
2024/04/22 08:27:34;;;;;;;5.47;3.95;;;;;;;11.97;100.00;101993.78;4770241;30;20039;-94
2024/04/22 08:30:00;;;;;;;9.70;4.03;;;;;;;12.07;100.00;101990.44;4750713;30;20075;-95
2024/04/22 08:32:26;;;;;;;6.13;3.70;;;;;;;12.21;100.00;101987.63;4751485;30;20405;-95
2024/04/22 08:34:52;;;;;;;8.40;3.45;;;;;;;12.24;100.00;101992.69;4743709;30;20031;-96
2024/04/22 08:37:18;;;;;;;10.93;3.35;;;;;;;12.21;100.00;101992.94;4738757;30;20031;-96
2024/04/22 08:39:47;;;;;;;8.93;3.83;;;;;;;12.22;100.00;101978.69;4752017;30;20035;-96
2024/04/22 08:42:14;;;;;;;7.45;3.38;;;;;;;12.28;100.00;101985.31;4740682;30;20047;-96
2024/04/22 08:44:41;;;;;;;11.85;3.72;;;;;;;12.28;100.00;101994.13;4759754;30;20050;-96
2024/04/22 08:47:07;;;;;;;7.38;3.00;;;;;;;12.30;100.00;101993.16;4737825;30;20043;-96
2024/04/22 08:49:33;;;;;;;6.60;3.00;;;;;;;12.38;100.00;101980.16;4749240;30;20502;-95
2024/04/22 08:51:59;;;;;;;8.65;3.28;;;;;;;12.58;100.00;101986.56;4746565;30;20181;-96
2024/04/22 08:54:27;;;;;;;3.80;2.10;;;;;;;12.69;100.00;101987.56;4750248;30;20032;-96
2024/04/22 08:56:55;;;;;;;9.68;2.22;;;;;;;12.72;100.00;101982.00;4754939;29;20043;-95
2024/04/22 08:59:21;;;;;;;5.07;2.20;;;;;;;12.85;100.00;101981.91;4755809;30;20069;-96
2024/04/22 09:02:06;;;;;;;4.97;1.90;;;;;;;12.96;100.00;101981.91;4739255;30;20047;-94
2024/04/22 09:04:32;;;;;;;6.70;1.55;;;;;;;12.85;100.00;101974.75;4748746;30;20550;-95
2024/04/22 09:07:07;;;;;;;3.85;1.42;;;;;;;12.88;100.00;101979.00;4752095;30;20529;-94
2024/04/22 09:09:33;;;;;;;3.72;1.75;;;;;;;12.79;100.00;101972.59;4765049;30;20040;-96
2024/04/22 09:11:59;;;;;;;5.13;1.60;;;;;;;12.86;100.00;101975.59;4746911;30;20044;-95
2024/04/22 09:14:25;;;;;;;4.57;1.80;;;;;;;12.92;100.00;101967.16;4766699;30;20051;-95
2024/04/22 09:16:52;;;;;;;3.47;1.60;;;;;;;13.02;100.00;101968.13;4737545;30;20512;-96
2024/04/22 09:19:25;;;;;;;4.22;1.67;;;;;;;13.10;100.00;101970.16;4766284;30;20075;-95
2024/04/22 09:21:52;;;;;;;4.45;1.80;;;;;;;13.01;100.00;101968.25;4764350;30;20433;-96
2024/04/22 09:24:18;;;;;;;4.47;2.22;;;;;;;13.00;100.00;101970.06;4738173;30;20039;-96
2024/04/22 09:26:44;;;;;;;4.75;1.67;;;;;;;13.02;100.00;101961.97;4757808;29;20531;-96
2024/04/22 09:29:13;;;;;;;4.80;2.17;;;;;;;12.96;100.00;101968.63;4776053;29;20047;-95
2024/04/22 09:31:41;;;;;;;5.80;1.88;;;;;;;13.03;100.00;101967.16;4751543;30;20107;-95
2024/04/22 09:34:09;;;;;;;5.00;2.80;;;;;;;13.19;100.00;101965.06;4752004;30;20062;-95
2024/04/22 09:36:35;;;;;;;4.45;1.85;;;;;;;13.11;100.00;101965.69;4783354;30;20036;-94
2024/04/22 09:39:01;;;;;;;5.03;2.42;;;;;;;13.13;100.00;101964.59;4771301;30;20027;-93
2024/04/22 09:41:27;;;;;;;4.05;2.42;;;;;;;13.17;100.00;101957.22;4791841;30;20047;-95
2024/04/22 09:43:54;;;;;;;5.82;2.20;;;;;;;13.32;100.00;101959.59;4779283;29;20141;-94
2024/04/22 09:46:20;;;;;;;4.95;2.20;;;;;;;13.34;100.00;101950.56;4757669;30;20043;-96
2024/04/22 09:48:47;;;;;;;2.55;1.80;;;;;;;13.45;100.00;101962.09;4768192;30;20490;-94
2024/04/22 09:51:14;;;;;;;6.18;2.05;;;;;;;13.55;100.00;101959.56;4782698;29;20143;-93
2024/04/22 09:53:41;;;;;;;3.30;1.98;;;;;;;13.53;100.00;101965.00;4777040;30;20134;-96
2024/04/22 09:56:14;;;;;;;3.83;1.67;;;;;;;13.52;100.00;101958.84;4783988;30;20537;-95
2024/04/22 09:58:41;;;;;;;3.78;1.70;;;;;;;13.38;100.00;101970.56;4778396;30;20042;-96
2024/04/22 10:01:07;;;;;;;3.97;1.65;;;;;;;13.38;100.00;101961.75;4771667;30;20039;-96
2024/04/22 10:03:33;;;;;;;5.05;1.20;;;;;;;13.49;100.00;101960.91;4805179;29;20611;-96
2024/04/22 10:06:02;;;;;;;3.22;1.10;;;;;;;13.37;100.00;101963.59;4764288;30;20043;-96
2024/04/22 10:08:32;;;;;;;4.93;1.00;;;;;;;13.51;100.00;101966.94;4779121;30;20049;-96
2024/04/22 10:11:12;;;;;;;4.20;0.98;;;;;;;13.56;100.00;101950.63;4787424;30;20045;-95
2024/04/22 10:13:40;;;;;;;1.98;0.93;;;;;;;13.33;100.00;101959.47;4796464;30;20075;-96
2024/04/22 10:16:11;;;;;;;5.05;0.93;;;;;;;13.27;100.00;101947.56;4785304;30;20086;-96
2024/04/22 10:18:44;;;;;;;3.38;1.20;;;;;;;13.42;100.00;101963.22;4775778;30;20036;-95
2024/04/22 10:21:10;;;;;;;4.65;0.77;;;;;;;13.48;100.00;101961.84;4788753;30;20051;-96
2024/04/22 10:23:37;;;;;;;5.15;1.00;;;;;;;13.54;100.00;101968.53;4778888;30;20583;-96
2024/04/22 10:26:14;;;;;;;5.45;0.80;;;;;;;13.57;100.00;101969.09;4786197;30;20126;-96
2024/04/22 10:28:40;;;;;;;3.08;0.80;;;;;;;13.33;100.00;101966.63;4744623;30;20075;-95
2024/04/22 10:31:07;;;;;;;5.50;1.10;;;;;;;13.38;100.00;101969.72;4749690;24;20102;-87
2024/04/22 10:33:55;;;;;;;1.20;0.50;;;;;;;13.52;100.00;101971.31;4757879;30;20048;-86
2024/04/22 10:36:23;;;;;;;2.55;0.70;;;;;;;13.48;100.00;101964.50;4840052;24;20052;-85
2024/04/22 10:38:48;;;;;;;4.90;1.35;;;;;;;13.33;100.00;101970.09;4717003;30;20032;-83
2024/04/22 10:41:17;;;;;;;3.50;0.68;;;;;;;13.32;100.00;101965.78;4727294;30;20599;-86
2024/04/22 10:43:45;;;;;;;3.83;0.70;;;;;;;13.24;100.00;101955.78;4728960;30;20082;-91
2024/04/22 10:46:11;;;;;;;3.35;0.90;;;;;;;13.29;100.00;101966.03;4745230;30;20502;-87
2024/04/22 10:48:37;;;;;;;4.15;0.88;;;;;;;13.30;100.00;101965.03;4734214;30;20051;-91
2024/04/22 10:51:03;;;;;;;6.55;1.05;;;;;;;13.35;100.00;101968.16;4734399;30;20047;-82
2024/04/22 10:53:29;;;;;;;3.63;0.90;;;;;;;13.36;100.00;101943.28;4717038;30;20546;-88
2024/04/22 10:55:54;;;;;;;5.05;1.30;;;;;;;13.51;100.00;101951.00;4744063;30;20052;-86
2024/04/22 10:58:22;;;;;;;2.35;1.02;;;;;;;13.33;100.00;101958.66;4710143;30;20045;-82
2024/04/22 11:00:48;;;;;;;2.30;0.70;;;;;;;13.25;100.00;101957.44;4727625;30;20127;-89
2024/04/22 11:03:14;;;;;;;1.92;0.80;;;;;;;13.23;100.00;101966.53;4707200;30;20127;-83
2024/04/22 11:05:43;;;;;;;2.17;1.13;;;;;;;13.21;100.00;101952.50;4738394;30;20138;-88
2024/04/22 11:08:09;;;;;;;1.33;0.90;;;;;;;13.23;100.00;101963.88;4730573;30;20036;-88
2024/04/22 11:10:36;;;;;;;3.22;0.82;;;;;;;13.12;100.00;101951.47;4719559;30;20040;-83
2024/04/22 11:13:02;;;;;;;2.90;1.40;;;;;;;12.94;100.00;101961.72;4733280;30;20139;-86
2024/04/22 11:15:28;;;;;;;2.90;1.00;;;;;;;12.85;100.00;101958.84;4748937;30;20490;-82
2024/04/22 11:18:06;;;;;;;1.35;1.02;;;;;;;12.81;100.00;101951.25;4727855;30;20064;-90
2024/04/22 11:20:32;;;;;;;4.13;1.25;;;;;;;12.86;100.00;101957.03;4728668;30;20042;-81
2024/04/22 11:23:38;;;;;;;3.10;1.20;;;;;;;13.01;100.00;101955.81;4714473;30;20044;-84
2024/04/22 11:26:09;;;;;;;4.10;1.00;;;;;;;13.00;100.00;101951.47;4731728;30;20036;-87
2024/04/22 11:28:35;;;;;;;2.80;1.00;;;;;;;13.14;100.00;101954.81;4722879;30;20071;-81